sensor_id;sensor_type;location;lat;lon;timestamp;pressure;altitude;pressure_sealevel;temperature;humidity
49030;BME280;43337;52.070;4.508;2022-10-04T00:02:50;102458.09;;;12.37;87.17
49030;BME280;43337;52.070;4.508;2022-10-04T00:05:21;102459.88;;;12.38;87.12
49030;BME280;43337;52.070;4.508;2022-10-04T00:07:52;102456.38;;;12.36;86.91
49030;BME280;43337;52.070;4.508;2022-10-04T00:10:23;102479.91;;;12.46;87.02
49030;BME280;43337;52.070;4.508;2022-10-04T00:12:55;102476.41;;;12.46;87.05
49030;BME280;43337;52.070;4.508;2022-10-04T00:15:32;102462.34;;;12.44;87.08
49030;BME280;43337;52.070;4.508;2022-10-04T00:25:52;102456.19;;;12.43;87.17
49030;BME280;43337;52.070;4.508;2022-10-04T00:33:37;102458.91;;;12.40;87.18
49030;BME280;43337;52.070;4.508;2022-10-04T00:44:44;102472.28;;;12.34;87.24
49030;BME280;43337;52.070;4.508;2022-10-04T00:47:27;102467.88;;;12.33;86.97
49030;BME280;43337;52.070;4.508;2022-10-04T00:50:10;102426.16;;;12.10;87.19
49030;BME280;43337;52.070;4.508;2022-10-04T00:52:56;102438.38;;;12.16;87.00
49030;BME280;43337;52.070;4.508;2022-10-04T00:57:49;102434.06;;;12.12;86.95
49030;BME280;43337;52.070;4.508;2022-10-04T01:00:19;102435.75;;;12.14;87.27
49030;BME280;43337;52.070;4.508;2022-10-04T01:02:52;102427.06;;;12.11;87.33
49030;BME280;43337;52.070;4.508;2022-10-04T01:05:25;102421.06;;;12.03;87.42
49030;BME280;43337;52.070;4.508;2022-10-04T01:08:03;102433.16;;;12.13;87.20
49030;BME280;43337;52.070;4.508;2022-10-04T01:10:41;102421.78;;;12.09;87.39
49030;BME280;43337;52.070;4.508;2022-10-04T01:13:16;102432.41;;;12.08;87.24
49030;BME280;43337;52.070;4.508;2022-10-04T01:20:50;102427.31;;;12.00;87.45
49030;BME280;43337;52.070;4.508;2022-10-04T01:23:32;102416.06;;;11.90;87.43
49030;BME280;43337;52.070;4.508;2022-10-04T01:25:57;102412.56;;;11.90;87.51
49030;BME280;43337;52.070;4.508;2022-10-04T01:28:24;102410.78;;;11.92;87.39
49030;BME280;43337;52.070;4.508;2022-10-04T01:30:50;102410.00;;;11.87;87.48
49030;BME280;43337;52.070;4.508;2022-10-04T01:33:17;102411.75;;;11.88;87.58
49030;BME280;43337;52.070;4.508;2022-10-04T01:35:43;102383.78;;;11.78;87.68
49030;BME280;43337;52.070;4.508;2022-10-04T01:38:09;102354.25;;;11.60;87.70
49030;BME280;43337;52.070;4.508;2022-10-04T01:40:43;102324.72;;;11.46;87.66
49030;BME280;43337;52.070;4.508;2022-10-04T01:43:14;102383.00;;;11.74;87.80
49030;BME280;43337;52.070;4.508;2022-10-04T01:45:46;102368.25;;;11.65;88.01
49030;BME280;43337;52.070;4.508;2022-10-04T01:48:20;102368.94;;;11.72;87.74
49030;BME280;43337;52.070;4.508;2022-10-04T01:50:54;102361.13;;;11.69;88.05
49030;BME280;43337;52.070;4.508;2022-10-04T01:55:51;102342.84;;;11.61;87.99
49030;BME280;43337;52.070;4.508;2022-10-04T01:58:25;102345.47;;;11.61;87.93
49030;BME280;43337;52.070;4.508;2022-10-04T02:04:15;102320.13;;;11.53;87.80
49030;BME280;43337;52.070;4.508;2022-10-04T02:06:42;102301.03;;;11.43;87.97
49030;BME280;43337;52.070;4.508;2022-10-04T02:09:12;102327.00;;;11.61;88.19
49030;BME280;43337;52.070;4.508;2022-10-04T02:11:40;102291.41;;;11.40;88.25
49030;BME280;43337;52.070;4.508;2022-10-04T02:14:13;102292.19;;;11.45;88.01
49030;BME280;43337;52.070;4.508;2022-10-04T02:16:41;102306.88;;;11.56;88.31
49030;BME280;43337;52.070;4.508;2022-10-04T02:19:09;102282.63;;;11.40;88.28
49030;BME280;43337;52.070;4.508;2022-10-04T02:21:36;102291.97;;;11.55;88.39
49030;BME280;43337;52.070;4.508;2022-10-04T02:24:03;102267.72;;;11.39;88.21
49030;BME280;43337;52.070;4.508;2022-10-04T02:26:29;102282.50;;;11.46;88.61
49030;BME280;43337;52.070;4.508;2022-10-04T02:28:55;102244.41;;;11.20;88.30
49030;BME280;43337;52.070;4.508;2022-10-04T02:31:21;102295.66;;;11.47;88.35
49030;BME280;43337;52.070;4.508;2022-10-04T02:34:05;102300.94;;;11.47;88.27
49030;BME280;43337;52.070;4.508;2022-10-04T02:36:31;102294.78;;;11.47;88.46
49030;BME280;43337;52.070;4.508;2022-10-04T02:41:42;102289.56;;;11.44;88.32
49030;BME280;43337;52.070;4.508;2022-10-04T02:44:28;102252.94;;;11.32;88.32
49030;BME280;43337;52.070;4.508;2022-10-04T02:47:28;102240.91;;;11.18;88.39
49030;BME280;43337;52.070;4.508;2022-10-04T02:50:04;102246.00;;;11.28;88.51
49030;BME280;43337;52.070;4.508;2022-10-04T02:52:41;102254.59;;;11.36;88.46
49030;BME280;43337;52.070;4.508;2022-10-04T02:57:40;102255.69;;;11.27;88.33
49030;BME280;43337;52.070;4.508;2022-10-04T03:00:16;102264.47;;;11.28;88.29
49030;BME280;43337;52.070;4.508;2022-10-04T03:03:12;102257.66;;;11.17;88.66
49030;BME280;43337;52.070;4.508;2022-10-04T03:05:44;102239.34;;;11.11;88.57
49030;BME280;43337;52.070;4.508;2022-10-04T03:08:12;102251.44;;;11.20;88.54
49030;BME280;43337;52.070;4.508;2022-10-04T03:10:40;102201.16;;;10.90;88.43
49030;BME280;43337;52.070;4.508;2022-10-04T03:13:07;102208.03;;;10.97;88.62
49030;BME280;43337;52.070;4.508;2022-10-04T03:15:33;102230.59;;;11.11;88.76
49030;BME280;43337;52.070;4.508;2022-10-04T03:17:58;102223.66;;;11.05;88.49
49030;BME280;43337;52.070;4.508;2022-10-04T03:20:24;102201.03;;;10.95;88.74
49030;BME280;43337;52.070;4.508;2022-10-04T03:22:52;102238.44;;;11.12;88.72
49030;BME280;43337;52.070;4.508;2022-10-04T03:25:25;102213.19;;;11.02;88.65
49030;BME280;43337;52.070;4.508;2022-10-04T03:27:54;102216.72;;;11.01;89.10
49030;BME280;43337;52.070;4.508;2022-10-04T03:30:23;102178.56;;;10.79;89.14
49030;BME280;43337;52.070;4.508;2022-10-04T03:32:49;102218.31;;;11.08;88.90
49030;BME280;43337;52.070;4.508;2022-10-04T03:35:34;102218.34;;;11.07;88.85
49030;BME280;43337;52.070;4.508;2022-10-04T03:38:04;102207.84;;;11.05;89.15
49030;BME280;43337;52.070;4.508;2022-10-04T03:40:35;102221.03;;;11.05;88.98
49030;BME280;43337;52.070;4.508;2022-10-04T03:43:03;102152.47;;;10.68;89.15
49030;BME280;43337;52.070;4.508;2022-10-04T03:45:31;102182.81;;;10.86;89.28
49030;BME280;43337;52.070;4.508;2022-10-04T03:48:04;102207.09;;;11.00;89.03
49030;BME280;43337;52.070;4.508;2022-10-04T03:50:34;102213.19;;;11.02;89.09
49030;BME280;43337;52.070;4.508;2022-10-04T03:53:04;102214.13;;;10.99;89.18
49030;BME280;43337;52.070;4.508;2022-10-04T03:55:34;102222.88;;;11.02;89.14
49030;BME280;43337;52.070;4.508;2022-10-04T03:58:02;102212.53;;;10.92;88.92
49030;BME280;43337;52.070;4.508;2022-10-04T04:00:27;102184.69;;;10.81;88.97
49030;BME280;43337;52.070;4.508;2022-10-04T04:02:57;102149.91;;;10.65;89.08
49030;BME280;43337;52.070;4.508;2022-10-04T04:05:27;102216.78;;;10.99;88.92
49030;BME280;43337;52.070;4.508;2022-10-04T04:10:30;102212.44;;;10.97;89.20
49030;BME280;43337;52.070;4.508;2022-10-04T04:13:23;102208.09;;;10.94;88.89
49030;BME280;43337;52.070;4.508;2022-10-04T04:15:49;102212.53;;;10.92;88.86
49030;BME280;43337;52.070;4.508;2022-10-04T04:18:20;102213.41;;;10.91;89.12
49030;BME280;43337;52.070;4.508;2022-10-04T04:20:48;102194.44;;;10.75;89.04
49030;BME280;43337;52.070;4.508;2022-10-04T04:23:24;102216.13;;;10.88;89.11
49030;BME280;43337;52.070;4.508;2022-10-04T04:25:54;102175.34;;;10.66;89.25
49030;BME280;43337;52.070;4.508;2022-10-04T04:30:52;102171.03;;;10.62;88.95
49030;BME280;43337;52.070;4.508;2022-10-04T04:33:43;102219.75;;;10.84;89.12
49030;BME280;43337;52.070;4.508;2022-10-04T04:36:11;102202.38;;;10.74;88.93
49030;BME280;43337;52.070;4.508;2022-10-04T04:38:37;102204.09;;;10.77;89.16
49030;BME280;43337;52.070;4.508;2022-10-04T04:41:24;102209.22;;;10.83;89.01
49030;BME280;43337;52.070;4.508;2022-10-04T04:43:51;102201.38;;;10.80;88.96
49030;BME280;43337;52.070;4.508;2022-10-04T04:46:16;102171.06;;;10.60;89.13
49030;BME280;43337;52.070;4.508;2022-10-04T04:48:43;102203.19;;;10.78;88.95
49030;BME280;43337;52.070;4.508;2022-10-04T04:51:19;102201.53;;;10.73;88.76
49030;BME280;43337;52.070;4.508;2022-10-04T04:53:45;102181.53;;;10.65;89.06
49030;BME280;43337;52.070;4.508;2022-10-04T04:56:16;102216.22;;;10.84;89.21
49030;BME280;43337;52.070;4.508;2022-10-04T04:58:45;102171.91;;;10.61;89.06
49030;BME280;43337;52.070;4.508;2022-10-04T05:04:05;102200.56;;;10.76;89.17
49030;BME280;43337;52.070;4.508;2022-10-04T05:06:42;102188.34;;;10.73;88.85
49030;BME280;43337;52.070;4.508;2022-10-04T05:09:27;102187.56;;;10.68;89.20
49030;BME280;43337;52.070;4.508;2022-10-04T05:12:07;102210.19;;;10.79;88.79
49030;BME280;43337;52.070;4.508;2022-10-04T05:14:37;102211.91;;;10.80;89.22
49030;BME280;43337;52.070;4.508;2022-10-04T05:17:04;102211.97;;;10.78;89.50
49030;BME280;43337;52.070;4.508;2022-10-04T05:19:33;102186.75;;;10.66;88.93
49030;BME280;43337;52.070;4.508;2022-10-04T05:22:02;102206.72;;;10.77;88.86
49030;BME280;43337;52.070;4.508;2022-10-04T05:24:34;102187.72;;;10.61;89.39
49030;BME280;43337;52.070;4.508;2022-10-04T05:27:04;102206.75;;;10.75;89.03
49030;BME280;43337;52.070;4.508;2022-10-04T05:29:35;102199.75;;;10.74;89.22
49030;BME280;43337;52.070;4.508;2022-10-04T05:32:26;102195.38;;;10.73;88.95
49030;BME280;43337;52.070;4.508;2022-10-04T05:34:53;102190.19;;;10.70;88.91
49030;BME280;43337;52.070;4.508;2022-10-04T05:40:26;102176.25;;;10.65;89.05
49030;BME280;43337;52.070;4.508;2022-10-04T05:42:55;102165.88;;;10.57;89.54
49030;BME280;43337;52.070;4.508;2022-10-04T05:45:25;102182.44;;;10.62;89.13
49030;BME280;43337;52.070;4.508;2022-10-04T05:47:53;102149.34;;;10.50;89.14
49030;BME280;43337;52.070;4.508;2022-10-04T05:50:40;102167.56;;;10.60;89.36
49030;BME280;43337;52.070;4.508;2022-10-04T05:56:17;102173.78;;;10.56;89.45
49030;BME280;43337;52.070;4.508;2022-10-04T06:01:51;102153.78;;;10.47;89.23
49030;BME280;43337;52.070;4.508;2022-10-04T06:04:32;102171.22;;;10.52;89.61
49030;BME280;43337;52.070;4.508;2022-10-04T06:17:49;102160.66;;;10.54;89.59
49030;BME280;43337;52.070;4.508;2022-10-04T06:23:09;102162.44;;;10.52;89.61
49030;BME280;43337;52.070;4.508;2022-10-04T06:25:45;102151.00;;;10.53;89.49
49030;BME280;43337;52.070;4.508;2022-10-04T06:28:45;102134.56;;;10.43;89.57
49030;BME280;43337;52.070;4.508;2022-10-04T06:31:54;102147.66;;;10.46;89.58
49030;BME280;43337;52.070;4.508;2022-10-04T06:35:05;102145.03;;;10.46;89.78
49030;BME280;43337;52.070;4.508;2022-10-04T06:40:58;102152.09;;;10.44;90.04
49030;BME280;43337;52.070;4.508;2022-10-04T06:55:16;102147.34;;;10.60;90.14
49030;BME280;43337;52.070;4.508;2022-10-04T07:00:28;102151.47;;;10.72;90.12
49030;BME280;43337;52.070;4.508;2022-10-04T07:03:00;102147.00;;;10.77;90.16
49030;BME280;43337;52.070;4.508;2022-10-04T07:05:43;102158.28;;;10.82;90.29
49030;BME280;43337;52.070;4.508;2022-10-04T07:08:27;102157.25;;;10.89;89.96
49030;BME280;43337;52.070;4.508;2022-10-04T07:14:24;102156.16;;;10.99;89.90
49030;BME280;43337;52.070;4.508;2022-10-04T07:16:52;102157.72;;;11.07;90.19
49030;BME280;43337;52.070;4.508;2022-10-04T07:19:28;102158.50;;;11.12;89.84
49030;BME280;43337;52.070;4.508;2022-10-04T07:22:21;102132.34;;;11.04;89.93
49030;BME280;43337;52.070;4.508;2022-10-04T07:24:56;102134.78;;;11.12;89.71
49030;BME280;43337;52.070;4.508;2022-10-04T07:30:01;102144.19;;;11.22;89.88
49030;BME280;43337;52.070;4.508;2022-10-04T07:32:34;102152.63;;;11.38;90.00
49030;BME280;43337;52.070;4.508;2022-10-04T07:40:19;102162.00;;;11.48;89.67
49030;BME280;43337;52.070;4.508;2022-10-04T07:42:51;102170.75;;;11.50;89.78
49030;BME280;43337;52.070;4.508;2022-10-04T07:45:22;102173.16;;;11.59;89.78
49030;BME280;43337;52.070;4.508;2022-10-04T07:47:50;102165.25;;;11.59;89.49
49030;BME280;43337;52.070;4.508;2022-10-04T07:50:22;102173.75;;;11.70;89.56
49030;BME280;43337;52.070;4.508;2022-10-04T07:55:28;102173.56;;;11.78;89.50
49030;BME280;43337;52.070;4.508;2022-10-04T08:01:01;102165.69;;;11.77;89.00
49030;BME280;43337;52.070;4.508;2022-10-04T08:11:50;102178.53;;;11.90;88.93
49030;BME280;43337;52.070;4.508;2022-10-04T08:17:16;102155.78;;;11.86;88.73
49030;BME280;43337;52.070;4.508;2022-10-04T08:22:30;102160.78;;;11.97;88.81
49030;BME280;43337;52.070;4.508;2022-10-04T08:25:17;102164.72;;;12.13;88.71
49030;BME280;43337;52.070;4.508;2022-10-04T08:30:57;102138.28;;;12.15;88.54
49030;BME280;43337;52.070;4.508;2022-10-04T08:39:00;102148.22;;;12.36;87.68
49030;BME280;43337;52.070;4.508;2022-10-04T08:53:27;102161.00;;;12.52;87.79
49030;BME280;43337;52.070;4.508;2022-10-04T08:56:17;102168.59;;;12.62;87.81
49030;BME280;43337;52.070;4.508;2022-10-04T09:08:16;102159.25;;;13.08;87.20
49030;BME280;43337;52.070;4.508;2022-10-04T09:46:54;102124.38;;;14.50;81.23
49030;BME280;43337;52.070;4.508;2022-10-04T09:55:35;102144.97;;;14.65;82.02
49030;BME280;43337;52.070;4.508;2022-10-04T10:04:22;102136.88;;;14.92;81.39
49030;BME280;43337;52.070;4.508;2022-10-04T10:12:35;102140.31;;;14.94;80.77
49030;BME280;43337;52.070;4.508;2022-10-04T10:18:29;102138.06;;;15.07;79.97
49030;BME280;43337;52.070;4.508;2022-10-04T10:21:37;102140.44;;;15.13;80.58
49030;BME280;43337;52.070;4.508;2022-10-04T10:24:23;102127.84;;;15.18;80.21
49030;BME280;43337;52.070;4.508;2022-10-04T10:35:12;102120.38;;;15.48;77.52
49030;BME280;43337;52.070;4.508;2022-10-04T10:38:02;102114.63;;;15.59;78.86
49030;BME280;43337;52.070;4.508;2022-10-04T10:46:07;102121.63;;;15.82;76.72
49030;BME280;43337;52.070;4.508;2022-10-04T10:52:36;102126.13;;;16.00;76.49
49030;BME280;43337;52.070;4.508;2022-10-04T10:55:32;102124.81;;;16.10;76.33
49030;BME280;43337;52.070;4.508;2022-10-04T10:58:13;102092.13;;;16.08;76.67
49030;BME280;43337;52.070;4.508;2022-10-04T11:14:54;102114.34;;;16.83;73.47
49030;BME280;43337;52.070;4.508;2022-10-04T11:37:07;102122.00;;;16.70;72.26
49030;BME280;43337;52.070;4.508;2022-10-04T12:10:34;102057.56;;;16.84;69.81
49030;BME280;43337;52.070;4.508;2022-10-04T12:13:25;102078.94;;;17.00;70.51
49030;BME280;43337;52.070;4.508;2022-10-04T12:27:49;102043.09;;;17.24;70.15
49030;BME280;43337;52.070;4.508;2022-10-04T12:35:38;102036.28;;;17.36;69.72
49030;BME280;43337;52.070;4.508;2022-10-04T12:38:17;102039.34;;;17.46;69.18
49030;BME280;43337;52.070;4.508;2022-10-04T12:44:09;102026.94;;;17.45;68.84
49030;BME280;43337;52.070;4.508;2022-10-04T12:50:18;102020.75;;;17.62;69.38
49030;BME280;43337;52.070;4.508;2022-10-04T12:53:08;102028.72;;;17.79;69.37
49030;BME280;43337;52.070;4.508;2022-10-04T13:07:54;102006.09;;;18.03;69.27
49030;BME280;43337;52.070;4.508;2022-10-04T13:18:51;101983.13;;;18.17;68.97
49030;BME280;43337;52.070;4.508;2022-10-04T13:27:48;101970.41;;;18.22;68.77
49030;BME280;43337;52.070;4.508;2022-10-04T13:30:25;101951.81;;;18.20;69.01
49030;BME280;43337;52.070;4.508;2022-10-04T13:41:28;101951.06;;;18.34;68.94
49030;BME280;43337;52.070;4.508;2022-10-04T13:49:35;101935.88;;;18.50;68.94
49030;BME280;43337;52.070;4.508;2022-10-04T13:59:39;101952.00;;;18.79;68.14
49030;BME280;43337;52.070;4.508;2022-10-04T14:02:46;101930.06;;;18.74;68.48
49030;BME280;43337;52.070;4.508;2022-10-04T14:08:02;101948.41;;;18.64;68.49
49030;BME280;43337;52.070;4.508;2022-10-04T14:24:46;101939.97;;;18.56;68.98
49030;BME280;43337;52.070;4.508;2022-10-04T14:30:21;101928.19;;;18.30;69.00
49030;BME280;43337;52.070;4.508;2022-10-04T14:32:56;101950.09;;;18.35;69.22
49030;BME280;43337;52.070;4.508;2022-10-04T14:35:53;101925.78;;;18.10;69.42
49030;BME280;43337;52.070;4.508;2022-10-04T14:38:41;101942.97;;;18.20;69.50
49030;BME280;43337;52.070;4.508;2022-10-04T14:49:21;101958.00;;;18.21;70.09
49030;BME280;43337;52.070;4.508;2022-10-04T14:52:45;101936.25;;;18.13;70.15
49030;BME280;43337;52.070;4.508;2022-10-04T14:54:55;101916.66;;;17.98;69.68
49030;BME280;43337;52.070;4.508;2022-10-04T14:57:59;101924.50;;;18.01;69.94
49030;BME280;43337;52.070;4.508;2022-10-04T15:03:39;101933.78;;;17.94;70.17
49030;BME280;43337;52.070;4.508;2022-10-04T15:06:21;101945.47;;;17.91;70.61
49030;BME280;43337;52.070;4.508;2022-10-04T15:09:19;101949.84;;;17.92;70.57
49030;BME280;43337;52.070;4.508;2022-10-04T15:11:52;101918.06;;;17.72;70.84
49030;BME280;43337;52.070;4.508;2022-10-04T15:14:38;101940.31;;;17.88;71.08
49030;BME280;43337;52.070;4.508;2022-10-04T15:17:23;101934.03;;;17.89;71.03
49030;BME280;43337;52.070;4.508;2022-10-04T15:22:40;101901.59;;;17.65;71.18
49030;BME280;43337;52.070;4.508;2022-10-04T15:25:44;101941.59;;;17.81;71.53
49030;BME280;43337;52.070;4.508;2022-10-04T15:31:15;101934.84;;;17.74;71.79
49030;BME280;43337;52.070;4.508;2022-10-04T15:33:56;101918.59;;;17.63;71.94
49030;BME280;43337;52.070;4.508;2022-10-04T15:36:51;101926.25;;;17.69;72.24
49030;BME280;43337;52.070;4.508;2022-10-04T15:39:55;101922.81;;;17.67;72.06
49030;BME280;43337;52.070;4.508;2022-10-04T15:42:31;101922.06;;;17.65;72.21
49030;BME280;43337;52.070;4.508;2022-10-04T15:48:02;101927.38;;;17.65;72.44
49030;BME280;43337;52.070;4.508;2022-10-04T15:51:02;101926.59;;;17.63;72.61
49030;BME280;43337;52.070;4.508;2022-10-04T15:53:53;101930.97;;;17.64;72.74
49030;BME280;43337;52.070;4.508;2022-10-04T15:56:22;101938.88;;;17.65;72.69
49030;BME280;43337;52.070;4.508;2022-10-04T16:02:22;101946.88;;;17.65;72.62
49030;BME280;43337;52.070;4.508;2022-10-04T16:05:02;101944.28;;;17.64;72.78
49030;BME280;43337;52.070;4.508;2022-10-04T16:07:40;101927.69;;;17.58;72.65
49030;BME280;43337;52.070;4.508;2022-10-04T16:15:41;101928.66;;;17.57;72.87
49030;BME280;43337;52.070;4.508;2022-10-04T16:21:17;101936.91;;;17.53;73.29
49030;BME280;43337;52.070;4.508;2022-10-04T16:29:39;101933.84;;;17.43;73.57
49030;BME280;43337;52.070;4.508;2022-10-04T16:32:26;101932.41;;;17.38;73.54
49030;BME280;43337;52.070;4.508;2022-10-04T16:34:59;101942.69;;;17.44;73.70
49030;BME280;43337;52.070;4.508;2022-10-04T16:40:34;101934.88;;;17.41;73.86
49030;BME280;43337;52.070;4.508;2022-10-04T16:43:05;101917.84;;;17.27;73.91
49030;BME280;43337;52.070;4.508;2022-10-04T16:54:06;101957.47;;;17.33;74.31
49030;BME280;43337;52.070;4.508;2022-10-04T17:04:46;101932.88;;;17.28;74.44
49030;BME280;43337;52.070;4.508;2022-10-04T17:25:50;101941.25;;;17.21;75.11
49030;BME280;43337;52.070;4.508;2022-10-04T17:31:23;101925.94;;;17.08;75.15
49030;BME280;43337;52.070;4.508;2022-10-04T17:34:07;101913.63;;;17.06;75.05
49030;BME280;43337;52.070;4.508;2022-10-04T17:36:38;101933.44;;;17.18;75.19
49030;BME280;43337;52.070;4.508;2022-10-04T17:41:53;101945.97;;;17.16;75.39
49030;BME280;43337;52.070;4.508;2022-10-04T17:44:45;101939.00;;;17.13;75.50
49030;BME280;43337;52.070;4.508;2022-10-04T17:51:09;101931.09;;;17.12;75.57
49030;BME280;43337;52.070;4.508;2022-10-04T17:54:17;101934.72;;;17.11;75.72
49030;BME280;43337;52.070;4.508;2022-10-04T17:59:55;101918.19;;;17.04;75.61
49030;BME280;43337;52.070;4.508;2022-10-04T18:02:49;101930.47;;;17.06;75.84
49030;BME280;43337;52.070;4.508;2022-10-04T18:10:40;101947.53;;;17.02;76.01
49030;BME280;43337;52.070;4.508;2022-10-04T18:13:16;101943.88;;;17.05;75.98
49030;BME280;43337;52.070;4.508;2022-10-04T18:18:26;101912.13;;;16.84;75.82
49030;BME280;43337;52.070;4.508;2022-10-04T18:23:24;101927.44;;;16.97;75.96
49030;BME280;43337;52.070;4.508;2022-10-04T18:26:05;101944.09;;;17.00;75.65
49030;BME280;43337;52.070;4.508;2022-10-04T18:28:34;101907.03;;;16.80;75.73
49030;BME280;43337;52.070;4.508;2022-10-04T18:31:57;101931.91;;;16.96;75.83
49030;BME280;43337;52.070;4.508;2022-10-04T18:34:25;101929.31;;;16.95;75.82
49030;BME280;43337;52.070;4.508;2022-10-04T18:39:46;101893.56;;;16.83;75.87
49030;BME280;43337;52.070;4.508;2022-10-04T18:42:27;101899.59;;;16.87;75.59
49030;BME280;43337;52.070;4.508;2022-10-04T18:49:59;101902.78;;;16.93;75.75
49030;BME280;43337;52.070;4.508;2022-10-04T18:55:43;101894.97;;;16.90;75.87
49030;BME280;43337;52.070;4.508;2022-10-04T19:01:36;101877.44;;;16.86;75.87
49030;BME280;43337;52.070;4.508;2022-10-04T19:10:03;101874.19;;;16.81;75.93
49030;BME280;43337;52.070;4.508;2022-10-04T19:21:52;101848.19;;;16.69;76.26
49030;BME280;43337;52.070;4.508;2022-10-04T19:30:27;101860.44;;;16.71;76.67
49030;BME280;43337;52.070;4.508;2022-10-04T19:38:42;101876.59;;;16.68;76.47
49030;BME280;43337;52.070;4.508;2022-10-04T19:43:58;101851.78;;;16.50;76.53
49030;BME280;43337;52.070;4.508;2022-10-04T19:46:38;101886.34;;;16.68;76.12
49030;BME280;43337;52.070;4.508;2022-10-04T19:49:45;101878.84;;;16.58;76.01
49030;BME280;43337;52.070;4.508;2022-10-04T19:54:40;101870.63;;;16.63;75.87
49030;BME280;43337;52.070;4.508;2022-10-04T19:57:11;101880.69;;;16.56;75.66
49030;BME280;43337;52.070;4.508;2022-10-04T19:59:40;101893.69;;;16.63;75.37
49030;BME280;43337;52.070;4.508;2022-10-04T20:02:10;101874.72;;;16.53;75.34
49030;BME280;43337;52.070;4.508;2022-10-04T20:04:36;101871.09;;;16.54;75.08
49030;BME280;43337;52.070;4.508;2022-10-04T20:12:38;101886.97;;;16.55;74.62
49030;BME280;43337;52.070;4.508;2022-10-04T20:17:45;101888.16;;;16.50;74.40
49030;BME280;43337;52.070;4.508;2022-10-04T20:20:14;101885.50;;;16.50;74.35
49030;BME280;43337;52.070;4.508;2022-10-04T20:28:09;101888.44;;;16.44;74.00
49030;BME280;43337;52.070;4.508;2022-10-04T20:31:50;101874.06;;;16.30;74.23
49030;BME280;43337;52.070;4.508;2022-10-04T20:34:22;101903.44;;;16.45;74.09
49030;BME280;43337;52.070;4.508;2022-10-04T20:36:54;101866.38;;;16.24;74.17
49030;BME280;43337;52.070;4.508;2022-10-04T20:44:59;101902.13;;;16.36;74.01
49030;BME280;43337;52.070;4.508;2022-10-04T20:49:55;101885.69;;;16.28;74.19
49030;BME280;43337;52.070;4.508;2022-10-04T20:52:27;101906.50;;;16.37;73.99
49030;BME280;43337;52.070;4.508;2022-10-04T20:54:53;101886.66;;;16.27;73.85
49030;BME280;43337;52.070;4.508;2022-10-04T20:57:21;101908.28;;;16.36;74.17
49030;BME280;43337;52.070;4.508;2022-10-04T20:59:49;101854.66;;;16.11;74.35
49030;BME280;43337;52.070;4.508;2022-10-04T21:02:16;101873.72;;;16.19;74.30
49030;BME280;43337;52.070;4.508;2022-10-04T21:04:41;101866.06;;;16.13;74.07
49030;BME280;43337;52.070;4.508;2022-10-04T21:07:10;101869.88;;;16.07;73.94
49030;BME280;43337;52.070;4.508;2022-10-04T21:09:40;101863.50;;;16.11;74.04
49030;BME280;43337;52.070;4.508;2022-10-04T21:15:04;101894.47;;;16.30;73.54
49030;BME280;43337;52.070;4.508;2022-10-04T21:19:55;101871.69;;;16.24;73.59
49030;BME280;43337;52.070;4.508;2022-10-04T21:25:22;101898.84;;;16.31;72.96
49030;BME280;43337;52.070;4.508;2022-10-04T21:28:34;101859.16;;;16.09;72.59
49030;BME280;43337;52.070;4.508;2022-10-04T21:31:01;101840.31;;;15.96;72.79
49030;BME280;43337;52.070;4.508;2022-10-04T21:33:32;101843.69;;;16.00;72.69
49030;BME280;43337;52.070;4.508;2022-10-04T21:35:58;101875.31;;;16.23;72.74
49030;BME280;43337;52.070;4.508;2022-10-04T21:38:23;101856.38;;;16.12;72.74
49030;BME280;43337;52.070;4.508;2022-10-04T21:40:49;101870.03;;;16.22;72.90
49030;BME280;43337;52.070;4.508;2022-10-04T21:43:14;101836.44;;;16.03;72.90
49030;BME280;43337;52.070;4.508;2022-10-04T21:45:40;101830.31;;;16.01;73.10
49030;BME280;43337;52.070;4.508;2022-10-04T21:48:05;101867.25;;;16.25;73.13
49030;BME280;43337;52.070;4.508;2022-10-04T21:50:31;101846.22;;;16.20;73.34
49030;BME280;43337;52.070;4.508;2022-10-04T21:52:56;101851.63;;;16.19;73.46
49030;BME280;43337;52.070;4.508;2022-10-04T21:55:24;101851.75;;;16.16;73.49
49030;BME280;43337;52.070;4.508;2022-10-04T21:57:49;101857.09;;;16.16;73.69
49030;BME280;43337;52.070;4.508;2022-10-04T22:00:15;101846.84;;;16.08;73.70
49030;BME280;43337;52.070;4.508;2022-10-04T22:02:40;101820.22;;;15.91;73.93
49030;BME280;43337;52.070;4.508;2022-10-04T22:05:05;101845.25;;;16.04;74.00
49030;BME280;43337;52.070;4.508;2022-10-04T22:07:31;101825.97;;;16.00;74.13
49030;BME280;43337;52.070;4.508;2022-10-04T22:09:56;101843.22;;;16.09;74.23
49030;BME280;43337;52.070;4.508;2022-10-04T22:12:21;101850.06;;;16.15;74.38
49030;BME280;43337;52.070;4.508;2022-10-04T22:14:47;101814.16;;;15.89;74.45
49030;BME280;43337;52.070;4.508;2022-10-04T22:17:12;101821.66;;;15.98;74.57
49030;BME280;43337;52.070;4.508;2022-10-04T22:19:37;101831.03;;;16.05;74.35
49030;BME280;43337;52.070;4.508;2022-10-04T22:22:03;101817.19;;;15.98;74.71
49030;BME280;43337;52.070;4.508;2022-10-04T22:24:28;101792.97;;;15.87;74.58
49030;BME280;43337;52.070;4.508;2022-10-04T22:26:55;101835.22;;;16.10;74.77
49030;BME280;43337;52.070;4.508;2022-10-04T22:29:21;101836.13;;;16.09;74.95
49030;BME280;43337;52.070;4.508;2022-10-04T22:31:50;101840.56;;;16.09;74.95
49030;BME280;43337;52.070;4.508;2022-10-04T22:34:20;101845.88;;;16.09;75.07
49030;BME280;43337;52.070;4.508;2022-10-04T22:36:47;101832.59;;;16.09;75.02
49030;BME280;43337;52.070;4.508;2022-10-04T22:39:18;101838.91;;;16.06;75.14
49030;BME280;43337;52.070;4.508;2022-10-04T22:41:46;101818.00;;;16.00;75.38
49030;BME280;43337;52.070;4.508;2022-10-04T22:44:26;101826.53;;;16.07;75.48
49030;BME280;43337;52.070;4.508;2022-10-04T22:46:55;101833.59;;;16.06;75.78